sensor_id;sensor_type;location;lat;lon;timestamp;P1;durP1;ratioP1;P2;durP2;ratioP2
60006;SDS011;45863;50.336;3.536;2023-06-19T00:00:51;0.40;;;0.40;;
60006;SDS011;45863;50.336;3.536;2023-06-19T00:03:17;3.17;;;1.65;;
60006;SDS011;45863;50.336;3.536;2023-06-19T00:05:42;0.98;;;0.98;;
60006;SDS011;45863;50.336;3.536;2023-06-19T00:08:07;0.32;;;0.32;;
60006;SDS011;45863;50.336;3.536;2023-06-19T00:10:33;0.88;;;0.50;;
60006;SDS011;45863;50.336;3.536;2023-06-19T00:12:58;2.78;;;1.73;;
60006;SDS011;45863;50.336;3.536;2023-06-19T00:15:23;0.53;;;0.53;;
60006;SDS011;45863;50.336;3.536;2023-06-19T00:17:49;0.60;;;0.60;;
60006;SDS011;45863;50.336;3.536;2023-06-19T00:20:14;0.68;;;0.68;;
60006;SDS011;45863;50.336;3.536;2023-06-19T00:22:39;0.73;;;0.73;;
60006;SDS011;45863;50.336;3.536;2023-06-19T00:25:05;0.40;;;0.40;;
60006;SDS011;45863;50.336;3.536;2023-06-19T00:27:30;1.40;;;1.30;;
60006;SDS011;45863;50.336;3.536;2023-06-19T00:29:56;0.65;;;0.65;;
60006;SDS011;45863;50.336;3.536;2023-06-19T00:32:27;0.50;;;0.50;;
60006;SDS011;45863;50.336;3.536;2023-06-19T00:34:52;0.40;;;0.40;;
60006;SDS011;45863;50.336;3.536;2023-06-19T00:37:17;0.40;;;0.40;;
60006;SDS011;45863;50.336;3.536;2023-06-19T00:39:43;0.40;;;0.40;;
60006;SDS011;45863;50.336;3.536;2023-06-19T00:42:08;0.53;;;0.53;;
60006;SDS011;45863;50.336;3.536;2023-06-19T00:44:33;24.23;;;9.10;;
60006;SDS011;45863;50.336;3.536;2023-06-19T00:46:59;29.80;;;11.03;;
60006;SDS011;45863;50.336;3.536;2023-06-19T00:49:25;20.98;;;10.98;;
60006;SDS011;45863;50.336;3.536;2023-06-19T00:51:51;23.88;;;10.55;;
60006;SDS011;45863;50.336;3.536;2023-06-19T00:54:16;21.25;;;11.07;;
60006;SDS011;45863;50.336;3.536;2023-06-19T00:56:42;18.85;;;8.95;;
60006;SDS011;45863;50.336;3.536;2023-06-19T00:59:11;21.33;;;11.35;;
60006;SDS011;45863;50.336;3.536;2023-06-19T01:01:38;20.98;;;10.75;;
60006;SDS011;45863;50.336;3.536;2023-06-19T01:04:03;19.92;;;10.77;;
60006;SDS011;45863;50.336;3.536;2023-06-19T01:06:30;21.98;;;10.00;;
60006;SDS011;45863;50.336;3.536;2023-06-19T01:09:04;19.73;;;11.25;;
60006;SDS011;45863;50.336;3.536;2023-06-19T01:11:35;18.13;;;11.30;;
60006;SDS011;45863;50.336;3.536;2023-06-19T01:14:08;31.20;;;12.32;;
60006;SDS011;45863;50.336;3.536;2023-06-19T01:16:34;25.08;;;12.07;;
60006;SDS011;45863;50.336;3.536;2023-06-19T01:18:59;24.33;;;11.73;;
60006;SDS011;45863;50.336;3.536;2023-06-19T01:21:25;30.80;;;11.57;;
60006;SDS011;45863;50.336;3.536;2023-06-19T01:23:51;20.00;;;11.20;;
60006;SDS011;45863;50.336;3.536;2023-06-19T01:26:16;18.63;;;10.77;;
60006;SDS011;45863;50.336;3.536;2023-06-19T01:28:42;26.23;;;10.95;;
60006;SDS011;45863;50.336;3.536;2023-06-19T01:31:12;22.02;;;11.38;;
60006;SDS011;45863;50.336;3.536;2023-06-19T01:33:38;21.73;;;11.90;;
60006;SDS011;45863;50.336;3.536;2023-06-19T01:36:04;19.10;;;11.35;;
60006;SDS011;45863;50.336;3.536;2023-06-19T01:38:32;22.77;;;11.13;;
60006;SDS011;45863;50.336;3.536;2023-06-19T01:40:57;14.85;;;9.43;;
60006;SDS011;45863;50.336;3.536;2023-06-19T01:43:24;19.58;;;11.35;;
60006;SDS011;45863;50.336;3.536;2023-06-19T01:45:49;20.52;;;10.88;;
60006;SDS011;45863;50.336;3.536;2023-06-19T01:48:15;15.40;;;9.63;;
60006;SDS011;45863;50.336;3.536;2023-06-19T01:50:41;17.08;;;8.50;;
60006;SDS011;45863;50.336;3.536;2023-06-19T01:53:09;16.15;;;9.05;;
60006;SDS011;45863;50.336;3.536;2023-06-19T01:55:35;17.20;;;7.73;;
60006;SDS011;45863;50.336;3.536;2023-06-19T01:58:00;14.07;;;7.10;;
60006;SDS011;45863;50.336;3.536;2023-06-19T02:00:25;14.23;;;6.80;;
60006;SDS011;45863;50.336;3.536;2023-06-19T02:02:50;13.43;;;6.60;;
60006;SDS011;45863;50.336;3.536;2023-06-19T02:05:16;10.57;;;6.68;;
60006;SDS011;45863;50.336;3.536;2023-06-19T02:07:41;14.38;;;6.65;;
60006;SDS011;45863;50.336;3.536;2023-06-19T02:10:06;12.73;;;6.93;;
60006;SDS011;45863;50.336;3.536;2023-06-19T02:12:33;18.25;;;6.20;;
60006;SDS011;45863;50.336;3.536;2023-06-19T02:14:58;12.63;;;6.60;;
60006;SDS011;45863;50.336;3.536;2023-06-19T02:17:23;14.20;;;6.37;;
60006;SDS011;45863;50.336;3.536;2023-06-19T02:19:48;11.93;;;6.50;;
60006;SDS011;45863;50.336;3.536;2023-06-19T02:22:13;9.90;;;6.13;;
60006;SDS011;45863;50.336;3.536;2023-06-19T02:24:39;11.07;;;6.00;;
60006;SDS011;45863;50.336;3.536;2023-06-19T02:27:04;13.23;;;6.38;;
60006;SDS011;45863;50.336;3.536;2023-06-19T02:29:30;14.10;;;6.18;;
60006;SDS011;45863;50.336;3.536;2023-06-19T02:31:55;14.13;;;6.55;;
60006;SDS011;45863;50.336;3.536;2023-06-19T02:34:21;13.07;;;7.18;;
60006;SDS011;45863;50.336;3.536;2023-06-19T02:36:49;11.93;;;6.85;;
60006;SDS011;45863;50.336;3.536;2023-06-19T02:39:14;18.08;;;6.97;;
60006;SDS011;45863;50.336;3.536;2023-06-19T02:41:39;11.65;;;7.22;;
60006;SDS011;45863;50.336;3.536;2023-06-19T02:44:08;17.10;;;6.53;;
60006;SDS011;45863;50.336;3.536;2023-06-19T02:46:33;11.30;;;6.80;;
60006;SDS011;45863;50.336;3.536;2023-06-19T02:48:58;12.98;;;7.53;;
60006;SDS011;45863;50.336;3.536;2023-06-19T02:51:24;16.92;;;7.07;;
60006;SDS011;45863;50.336;3.536;2023-06-19T02:53:49;13.17;;;7.87;;
60006;SDS011;45863;50.336;3.536;2023-06-19T02:56:14;16.13;;;7.40;;
60006;SDS011;45863;50.336;3.536;2023-06-19T02:58:39;12.95;;;7.53;;
60006;SDS011;45863;50.336;3.536;2023-06-19T03:01:05;15.75;;;8.60;;
60006;SDS011;45863;50.336;3.536;2023-06-19T03:03:33;18.98;;;11.30;;
60006;SDS011;45863;50.336;3.536;2023-06-19T03:06:03;17.75;;;11.30;;
60006;SDS011;45863;50.336;3.536;2023-06-19T03:08:28;21.65;;;13.18;;
60006;SDS011;45863;50.336;3.536;2023-06-19T03:10:53;22.83;;;13.93;;
60006;SDS011;45863;50.336;3.536;2023-06-19T03:13:19;27.23;;;14.63;;
60006;SDS011;45863;50.336;3.536;2023-06-19T03:15:44;27.33;;;15.00;;
60006;SDS011;45863;50.336;3.536;2023-06-19T03:18:09;28.43;;;17.73;;
60006;SDS011;45863;50.336;3.536;2023-06-19T03:20:35;26.92;;;16.52;;
60006;SDS011;45863;50.336;3.536;2023-06-19T03:23:00;25.93;;;15.83;;
60006;SDS011;45863;50.336;3.536;2023-06-19T03:25:26;26.75;;;16.85;;
60006;SDS011;45863;50.336;3.536;2023-06-19T03:27:51;30.10;;;16.45;;
60006;SDS011;45863;50.336;3.536;2023-06-19T03:30:17;31.20;;;17.50;;
60006;SDS011;45863;50.336;3.536;2023-06-19T03:32:43;31.05;;;16.88;;
60006;SDS011;45863;50.336;3.536;2023-06-19T03:35:09;30.45;;;18.05;;
60006;SDS011;45863;50.336;3.536;2023-06-19T03:37:35;30.70;;;17.55;;
60006;SDS011;45863;50.336;3.536;2023-06-19T03:40:00;28.85;;;17.73;;
60006;SDS011;45863;50.336;3.536;2023-06-19T03:42:25;27.35;;;17.20;;
60006;SDS011;45863;50.336;3.536;2023-06-19T03:44:51;28.03;;;17.47;;
60006;SDS011;45863;50.336;3.536;2023-06-19T03:47:16;33.10;;;17.33;;
60006;SDS011;45863;50.336;3.536;2023-06-19T03:49:41;29.20;;;17.63;;
60006;SDS011;45863;50.336;3.536;2023-06-19T03:52:07;25.90;;;17.45;;
60006;SDS011;45863;50.336;3.536;2023-06-19T03:54:32;27.23;;;17.90;;
60006;SDS011;45863;50.336;3.536;2023-06-19T03:56:57;26.90;;;16.67;;
60006;SDS011;45863;50.336;3.536;2023-06-19T03:59:23;27.30;;;16.57;;
60006;SDS011;45863;50.336;3.536;2023-06-19T04:01:48;27.35;;;16.23;;
60006;SDS011;45863;50.336;3.536;2023-06-19T04:04:13;24.33;;;15.50;;
60006;SDS011;45863;50.336;3.536;2023-06-19T04:06:38;27.98;;;16.60;;
60006;SDS011;45863;50.336;3.536;2023-06-19T04:09:04;24.00;;;15.38;;
60006;SDS011;45863;50.336;3.536;2023-06-19T04:11:29;25.90;;;15.65;;
60006;SDS011;45863;50.336;3.536;2023-06-19T04:13:55;29.42;;;16.67;;
60006;SDS011;45863;50.336;3.536;2023-06-19T04:16:20;28.00;;;15.60;;
60006;SDS011;45863;50.336;3.536;2023-06-19T04:18:45;25.83;;;15.82;;
60006;SDS011;45863;50.336;3.536;2023-06-19T04:21:11;24.00;;;16.45;;
60006;SDS011;45863;50.336;3.536;2023-06-19T04:23:36;24.90;;;16.00;;
60006;SDS011;45863;50.336;3.536;2023-06-19T04:26:01;29.13;;;18.20;;
60006;SDS011;45863;50.336;3.536;2023-06-19T04:28:27;25.55;;;17.92;;
60006;SDS011;45863;50.336;3.536;2023-06-19T04:30:52;30.23;;;18.45;;
60006;SDS011;45863;50.336;3.536;2023-06-19T04:33:28;31.77;;;19.38;;
60006;SDS011;45863;50.336;3.536;2023-06-19T04:35:54;28.05;;;19.95;;
60006;SDS011;45863;50.336;3.536;2023-06-19T04:38:19;31.02;;;18.52;;
60006;SDS011;45863;50.336;3.536;2023-06-19T04:40:48;27.05;;;19.10;;
60006;SDS011;45863;50.336;3.536;2023-06-19T04:43:13;28.10;;;17.58;;
60006;SDS011;45863;50.336;3.536;2023-06-19T04:45:39;26.67;;;18.45;;
60006;SDS011;45863;50.336;3.536;2023-06-19T04:48:04;28.80;;;19.17;;
60006;SDS011;45863;50.336;3.536;2023-06-19T04:50:29;33.88;;;19.50;;
60006;SDS011;45863;50.336;3.536;2023-06-19T04:52:54;30.52;;;19.15;;
60006;SDS011;45863;50.336;3.536;2023-06-19T04:55:19;31.47;;;20.40;;
60006;SDS011;45863;50.336;3.536;2023-06-19T04:57:45;27.65;;;19.80;;
60006;SDS011;45863;50.336;3.536;2023-06-19T05:00:10;26.93;;;20.20;;
60006;SDS011;45863;50.336;3.536;2023-06-19T05:02:35;30.27;;;19.25;;
60006;SDS011;45863;50.336;3.536;2023-06-19T05:05:01;28.55;;;17.98;;
60006;SDS011;45863;50.336;3.536;2023-06-19T05:07:31;30.83;;;19.30;;
60006;SDS011;45863;50.336;3.536;2023-06-19T05:09:56;30.33;;;18.27;;
60006;SDS011;45863;50.336;3.536;2023-06-19T05:12:22;29.55;;;19.00;;
60006;SDS011;45863;50.336;3.536;2023-06-19T05:14:47;28.37;;;18.63;;
60006;SDS011;45863;50.336;3.536;2023-06-19T05:17:12;34.60;;;19.63;;
60006;SDS011;45863;50.336;3.536;2023-06-19T05:19:37;29.33;;;18.73;;
60006;SDS011;45863;50.336;3.536;2023-06-19T05:22:03;32.00;;;19.33;;
60006;SDS011;45863;50.336;3.536;2023-06-19T05:24:28;35.72;;;18.85;;
60006;SDS011;45863;50.336;3.536;2023-06-19T05:26:53;32.53;;;17.90;;
60006;SDS011;45863;50.336;3.536;2023-06-19T05:29:19;25.67;;;17.73;;
60006;SDS011;45863;50.336;3.536;2023-06-19T05:31:44;31.37;;;19.53;;
60006;SDS011;45863;50.336;3.536;2023-06-19T05:34:09;29.77;;;18.23;;
60006;SDS011;45863;50.336;3.536;2023-06-19T05:36:34;30.33;;;18.08;;
60006;SDS011;45863;50.336;3.536;2023-06-19T05:38:59;23.20;;;16.58;;
60006;SDS011;45863;50.336;3.536;2023-06-19T05:41:25;27.63;;;16.03;;
60006;SDS011;45863;50.336;3.536;2023-06-19T05:43:50;28.02;;;15.73;;
60006;SDS011;45863;50.336;3.536;2023-06-19T05:46:15;24.73;;;17.13;;
60006;SDS011;45863;50.336;3.536;2023-06-19T05:48:40;28.17;;;16.15;;
60006;SDS011;45863;50.336;3.536;2023-06-19T05:51:06;23.70;;;16.20;;
60006;SDS011;45863;50.336;3.536;2023-06-19T05:53:31;21.45;;;14.57;;
60006;SDS011;45863;50.336;3.536;2023-06-19T05:55:56;19.35;;;13.90;;
60006;SDS011;45863;50.336;3.536;2023-06-19T05:58:23;23.33;;;14.30;;
60006;SDS011;45863;50.336;3.536;2023-06-19T06:00:50;25.30;;;13.23;;
60006;SDS011;45863;50.336;3.536;2023-06-19T06:03:15;21.27;;;12.63;;
60006;SDS011;45863;50.336;3.536;2023-06-19T06:05:41;22.33;;;14.03;;
60006;SDS011;45863;50.336;3.536;2023-06-19T06:08:06;22.63;;;14.65;;
60006;SDS011;45863;50.336;3.536;2023-06-19T06:10:32;23.37;;;14.23;;
60006;SDS011;45863;50.336;3.536;2023-06-19T06:12:57;20.98;;;13.90;;
60006;SDS011;45863;50.336;3.536;2023-06-19T06:15:22;21.93;;;14.93;;
60006;SDS011;45863;50.336;3.536;2023-06-19T06:17:48;21.70;;;15.38;;
60006;SDS011;45863;50.336;3.536;2023-06-19T06:20:13;24.17;;;14.68;;
60006;SDS011;45863;50.336;3.536;2023-06-19T06:22:39;26.25;;;14.98;;
60006;SDS011;45863;50.336;3.536;2023-06-19T06:25:04;25.20;;;15.00;;
60006;SDS011;45863;50.336;3.536;2023-06-19T06:27:30;24.73;;;16.30;;
60006;SDS011;45863;50.336;3.536;2023-06-19T06:29:55;24.55;;;15.23;;
60006;SDS011;45863;50.336;3.536;2023-06-19T06:32:20;24.20;;;15.57;;
60006;SDS011;45863;50.336;3.536;2023-06-19T06:34:45;22.15;;;15.05;;
60006;SDS011;45863;50.336;3.536;2023-06-19T06:37:11;26.27;;;15.47;;
60006;SDS011;45863;50.336;3.536;2023-06-19T06:39:36;22.57;;;14.57;;
60006;SDS011;45863;50.336;3.536;2023-06-19T06:42:01;22.67;;;15.20;;
60006;SDS011;45863;50.336;3.536;2023-06-19T06:44:27;20.20;;;15.07;;
60006;SDS011;45863;50.336;3.536;2023-06-19T06:46:52;17.75;;;13.38;;
60006;SDS011;45863;50.336;3.536;2023-06-19T06:49:17;22.03;;;15.07;;
60006;SDS011;45863;50.336;3.536;2023-06-19T06:51:42;21.23;;;14.63;;
60006;SDS011;45863;50.336;3.536;2023-06-19T06:54:08;22.98;;;14.65;;
60006;SDS011;45863;50.336;3.536;2023-06-19T06:56:33;20.27;;;14.57;;
60006;SDS011;45863;50.336;3.536;2023-06-19T06:58:58;21.30;;;14.67;;
60006;SDS011;45863;50.336;3.536;2023-06-19T07:01:24;23.80;;;15.60;;
60006;SDS011;45863;50.336;3.536;2023-06-19T07:03:49;19.17;;;14.30;;
60006;SDS011;45863;50.336;3.536;2023-06-19T07:06:14;22.63;;;14.00;;
60006;SDS011;45863;50.336;3.536;2023-06-19T07:08:39;19.77;;;13.60;;
60006;SDS011;45863;50.336;3.536;2023-06-19T07:11:06;22.40;;;13.63;;
60006;SDS011;45863;50.336;3.536;2023-06-19T07:13:31;22.23;;;14.55;;
60006;SDS011;45863;50.336;3.536;2023-06-19T07:15:56;18.73;;;14.53;;
60006;SDS011;45863;50.336;3.536;2023-06-19T07:18:23;17.30;;;12.60;;
60006;SDS011;45863;50.336;3.536;2023-06-19T07:20:48;21.25;;;13.95;;
60006;SDS011;45863;50.336;3.536;2023-06-19T07:23:13;21.05;;;13.60;;
60006;SDS011;45863;50.336;3.536;2023-06-19T07:25:39;21.17;;;14.68;;
60006;SDS011;45863;50.336;3.536;2023-06-19T07:28:04;19.63;;;14.07;;
60006;SDS011;45863;50.336;3.536;2023-06-19T07:30:30;18.10;;;11.50;;
60006;SDS011;45863;50.336;3.536;2023-06-19T07:32:55;20.67;;;13.20;;
60006;SDS011;45863;50.336;3.536;2023-06-19T07:35:20;19.23;;;13.53;;
60006;SDS011;45863;50.336;3.536;2023-06-19T07:37:45;19.97;;;13.17;;
60006;SDS011;45863;50.336;3.536;2023-06-19T07:40:11;18.33;;;12.50;;
60006;SDS011;45863;50.336;3.536;2023-06-19T07:42:36;17.52;;;12.38;;
60006;SDS011;45863;50.336;3.536;2023-06-19T07:45:02;17.88;;;10.75;;
60006;SDS011;45863;50.336;3.536;2023-06-19T07:47:28;13.95;;;9.43;;
60006;SDS011;45863;50.336;3.536;2023-06-19T07:49:53;16.92;;;10.05;;
60006;SDS011;45863;50.336;3.536;2023-06-19T07:52:18;15.43;;;9.30;;
60006;SDS011;45863;50.336;3.536;2023-06-19T07:54:53;14.30;;;9.43;;
60006;SDS011;45863;50.336;3.536;2023-06-19T07:57:19;16.70;;;9.30;;
60006;SDS011;45863;50.336;3.536;2023-06-19T07:59:44;15.68;;;9.27;;
60006;SDS011;45863;50.336;3.536;2023-06-19T08:02:10;14.23;;;9.57;;
60006;SDS011;45863;50.336;3.536;2023-06-19T08:04:35;15.95;;;9.38;;
60006;SDS011;45863;50.336;3.536;2023-06-19T08:07:01;15.43;;;9.85;;
60006;SDS011;45863;50.336;3.536;2023-06-19T08:09:26;14.02;;;8.43;;
60006;SDS011;45863;50.336;3.536;2023-06-19T08:11:51;14.88;;;9.05;;
60006;SDS011;45863;50.336;3.536;2023-06-19T08:14:17;13.73;;;8.57;;
60006;SDS011;45863;50.336;3.536;2023-06-19T08:16:42;15.40;;;9.67;;
60006;SDS011;45863;50.336;3.536;2023-06-19T08:19:07;15.37;;;9.63;;
60006;SDS011;45863;50.336;3.536;2023-06-19T08:21:32;18.37;;;9.60;;
60006;SDS011;45863;50.336;3.536;2023-06-19T08:23:57;12.97;;;9.63;;
60006;SDS011;45863;50.336;3.536;2023-06-19T08:26:23;13.77;;;8.93;;
60006;SDS011;45863;50.336;3.536;2023-06-19T08:28:48;17.27;;;9.27;;
60006;SDS011;45863;50.336;3.536;2023-06-19T08:31:14;16.35;;;10.35;;
60006;SDS011;45863;50.336;3.536;2023-06-19T08:33:39;16.70;;;10.25;;
60006;SDS011;45863;50.336;3.536;2023-06-19T08:36:04;17.40;;;10.63;;
60006;SDS011;45863;50.336;3.536;2023-06-19T08:38:30;15.17;;;9.57;;
60006;SDS011;45863;50.336;3.536;2023-06-19T08:40:55;14.93;;;9.48;;
60006;SDS011;45863;50.336;3.536;2023-06-19T08:43:20;17.30;;;10.45;;
60006;SDS011;45863;50.336;3.536;2023-06-19T08:45:52;15.18;;;9.68;;
60006;SDS011;45863;50.336;3.536;2023-06-19T08:48:20;17.25;;;10.70;;
60006;SDS011;45863;50.336;3.536;2023-06-19T08:50:45;14.43;;;10.02;;
60006;SDS011;45863;50.336;3.536;2023-06-19T08:53:11;14.60;;;9.73;;
60006;SDS011;45863;50.336;3.536;2023-06-19T08:55:36;16.27;;;10.65;;
60006;SDS011;45863;50.336;3.536;2023-06-19T08:58:02;13.43;;;10.30;;
60006;SDS011;45863;50.336;3.536;2023-06-19T09:00:28;17.67;;;10.13;;
60006;SDS011;45863;50.336;3.536;2023-06-19T09:02:59;14.93;;;10.85;;
60006;SDS011;45863;50.336;3.536;2023-06-19T09:05:24;14.95;;;9.95;;
60006;SDS011;45863;50.336;3.536;2023-06-19T09:07:54;14.73;;;9.93;;
60006;SDS011;45863;50.336;3.536;2023-06-19T09:10:20;14.13;;;9.77;;
60006;SDS011;45863;50.336;3.536;2023-06-19T09:13:01;17.60;;;9.48;;
60006;SDS011;45863;50.336;3.536;2023-06-19T09:15:27;15.25;;;10.07;;
60006;SDS011;45863;50.336;3.536;2023-06-19T09:17:59;15.77;;;10.15;;
60006;SDS011;45863;50.336;3.536;2023-06-19T09:20:28;12.93;;;10.02;;
60006;SDS011;45863;50.336;3.536;2023-06-19T09:22:57;14.63;;;10.70;;
60006;SDS011;45863;50.336;3.536;2023-06-19T09:25:22;14.90;;;10.10;;
60006;SDS011;45863;50.336;3.536;2023-06-19T09:27:48;14.43;;;10.18;;
60006;SDS011;45863;50.336;3.536;2023-06-19T09:30:17;18.95;;;11.15;;
60006;SDS011;45863;50.336;3.536;2023-06-19T09:32:42;15.77;;;10.40;;
60006;SDS011;45863;50.336;3.536;2023-06-19T09:35:07;16.30;;;10.63;;
60006;SDS011;45863;50.336;3.536;2023-06-19T09:37:33;14.68;;;9.85;;
60006;SDS011;45863;50.336;3.536;2023-06-19T09:39:59;15.13;;;9.67;;
60006;SDS011;45863;50.336;3.536;2023-06-19T09:42:34;14.85;;;10.05;;
60006;SDS011;45863;50.336;3.536;2023-06-19T09:45:03;17.48;;;10.80;;
60006;SDS011;45863;50.336;3.536;2023-06-19T09:47:33;18.67;;;10.23;;
60006;SDS011;45863;50.336;3.536;2023-06-19T09:50:00;18.15;;;10.25;;
60006;SDS011;45863;50.336;3.536;2023-06-19T09:52:26;15.65;;;9.88;;
60006;SDS011;45863;50.336;3.536;2023-06-19T09:54:53;15.15;;;9.68;;
60006;SDS011;45863;50.336;3.536;2023-06-19T09:57:18;14.98;;;9.45;;
60006;SDS011;45863;50.336;3.536;2023-06-19T09:59:45;14.13;;;8.25;;
60006;SDS011;45863;50.336;3.536;2023-06-19T10:02:11;12.60;;;8.45;;
60006;SDS011;45863;50.336;3.536;2023-06-19T10:04:46;13.07;;;8.63;;
60006;SDS011;45863;50.336;3.536;2023-06-19T10:07:17;14.10;;;8.82;;
60006;SDS011;45863;50.336;3.536;2023-06-19T10:10:05;11.93;;;8.13;;
60006;SDS011;45863;50.336;3.536;2023-06-19T10:12:34;11.32;;;7.63;;
60006;SDS011;45863;50.336;3.536;2023-06-19T10:15:07;13.93;;;8.55;;
60006;SDS011;45863;50.336;3.536;2023-06-19T10:17:33;11.07;;;8.45;;
60006;SDS011;45863;50.336;3.536;2023-06-19T10:19:58;12.30;;;8.00;;
60006;SDS011;45863;50.336;3.536;2023-06-19T10:22:23;14.10;;;8.93;;
60006;SDS011;45863;50.336;3.536;2023-06-19T10:24:54;13.73;;;8.48;;
60006;SDS011;45863;50.336;3.536;2023-06-19T10:27:20;12.73;;;9.20;;
60006;SDS011;45863;50.336;3.536;2023-06-19T10:29:51;13.43;;;9.38;;
60006;SDS011;45863;50.336;3.536;2023-06-19T10:32:16;15.05;;;8.35;;
60006;SDS011;45863;50.336;3.536;2023-06-19T10:34:44;12.88;;;8.27;;
60006;SDS011;45863;50.336;3.536;2023-06-19T10:37:10;12.10;;;8.88;;
60006;SDS011;45863;50.336;3.536;2023-06-19T10:39:35;12.03;;;8.30;;
60006;SDS011;45863;50.336;3.536;2023-06-19T10:42:00;15.07;;;8.73;;
60006;SDS011;45863;50.336;3.536;2023-06-19T10:44:25;12.23;;;9.40;;
60006;SDS011;45863;50.336;3.536;2023-06-19T10:46:52;18.75;;;10.75;;
60006;SDS011;45863;50.336;3.536;2023-06-19T10:49:17;13.98;;;8.98;;
60006;SDS011;45863;50.336;3.536;2023-06-19T10:51:42;12.25;;;8.75;;
60006;SDS011;45863;50.336;3.536;2023-06-19T10:54:09;15.30;;;9.07;;
60006;SDS011;45863;50.336;3.536;2023-06-19T10:56:34;13.80;;;8.70;;
60006;SDS011;45863;50.336;3.536;2023-06-19T10:59:06;13.98;;;9.60;;
60006;SDS011;45863;50.336;3.536;2023-06-19T11:01:37;16.75;;;9.23;;
60006;SDS011;45863;50.336;3.536;2023-06-19T11:04:03;12.45;;;9.38;;
60006;SDS011;45863;50.336;3.536;2023-06-19T11:06:29;12.43;;;8.20;;
60006;SDS011;45863;50.336;3.536;2023-06-19T11:08:54;14.90;;;8.37;;
60006;SDS011;45863;50.336;3.536;2023-06-19T11:11:19;11.90;;;7.47;;
60006;SDS011;45863;50.336;3.536;2023-06-19T11:13:45;13.25;;;7.70;;
60006;SDS011;45863;50.336;3.536;2023-06-19T11:16:10;11.32;;;7.60;;
60006;SDS011;45863;50.336;3.536;2023-06-19T11:18:35;8.50;;;6.13;;
60006;SDS011;45863;50.336;3.536;2023-06-19T11:21:01;9.68;;;5.85;;
60006;SDS011;45863;50.336;3.536;2023-06-19T11:23:28;10.77;;;5.75;;
60006;SDS011;45863;50.336;3.536;2023-06-19T11:25:53;9.25;;;6.03;;
60006;SDS011;45863;50.336;3.536;2023-06-19T11:28:19;9.23;;;6.10;;
60006;SDS011;45863;50.336;3.536;2023-06-19T11:30:47;10.95;;;5.75;;
60006;SDS011;45863;50.336;3.536;2023-06-19T11:35:40;12.15;;;5.82;;
60006;SDS011;45863;50.336;3.536;2023-06-19T11:38:06;9.30;;;6.07;;
60006;SDS011;45863;50.336;3.536;2023-06-19T11:40:38;9.02;;;5.75;;
60006;SDS011;45863;50.336;3.536;2023-06-19T11:43:04;10.43;;;5.65;;
60006;SDS011;45863;50.336;3.536;2023-06-19T11:45:29;8.38;;;5.60;;
60006;SDS011;45863;50.336;3.536;2023-06-19T11:47:54;8.53;;;5.50;;
60006;SDS011;45863;50.336;3.536;2023-06-19T11:50:26;7.67;;;5.00;;
60006;SDS011;45863;50.336;3.536;2023-06-19T11:52:51;9.23;;;5.32;;
60006;SDS011;45863;50.336;3.536;2023-06-19T11:55:16;7.03;;;4.57;;
60006;SDS011;45863;50.336;3.536;2023-06-19T11:57:41;7.93;;;4.67;;
60006;SDS011;45863;50.336;3.536;2023-06-19T12:00:12;10.40;;;5.10;;
60006;SDS011;45863;50.336;3.536;2023-06-19T12:02:38;8.80;;;5.05;;
60006;SDS011;45863;50.336;3.536;2023-06-19T12:05:03;7.77;;;4.90;;
60006;SDS011;45863;50.336;3.536;2023-06-19T12:07:28;7.70;;;4.60;;
60006;SDS011;45863;50.336;3.536;2023-06-19T12:09:53;8.37;;;4.43;;
60006;SDS011;45863;50.336;3.536;2023-06-19T12:12:19;7.03;;;4.27;;
60006;SDS011;45863;50.336;3.536;2023-06-19T12:14:44;8.23;;;4.90;;
60006;SDS011;45863;50.336;3.536;2023-06-19T12:17:10;7.87;;;4.93;;
60006;SDS011;45863;50.336;3.536;2023-06-19T12:19:35;7.50;;;4.15;;
60006;SDS011;45863;50.336;3.536;2023-06-19T12:22:00;9.13;;;4.97;;
60006;SDS011;45863;50.336;3.536;2023-06-19T12:24:25;8.13;;;5.00;;
60006;SDS011;45863;50.336;3.536;2023-06-19T12:26:51;7.67;;;5.10;;
60006;SDS011;45863;50.336;3.536;2023-06-19T12:29:16;9.73;;;4.57;;
60006;SDS011;45863;50.336;3.536;2023-06-19T12:31:43;7.70;;;4.67;;
60006;SDS011;45863;50.336;3.536;2023-06-19T12:34:08;7.03;;;4.30;;
60006;SDS011;45863;50.336;3.536;2023-06-19T12:36:34;7.30;;;4.78;;
60006;SDS011;45863;50.336;3.536;2023-06-19T12:38:59;9.17;;;4.30;;
60006;SDS011;45863;50.336;3.536;2023-06-19T12:41:25;8.77;;;4.30;;
60006;SDS011;45863;50.336;3.536;2023-06-19T12:43:50;8.40;;;4.80;;
60006;SDS011;45863;50.336;3.536;2023-06-19T12:46:15;11.38;;;4.65;;
60006;SDS011;45863;50.336;3.536;2023-06-19T12:48:41;9.43;;;5.40;;
60006;SDS011;45863;50.336;3.536;2023-06-19T12:51:06;8.02;;;5.13;;
60006;SDS011;45863;50.336;3.536;2023-06-19T12:53:32;7.63;;;4.50;;
60006;SDS011;45863;50.336;3.536;2023-06-19T12:55:57;6.53;;;4.63;;
60006;SDS011;45863;50.336;3.536;2023-06-19T12:58:23;7.18;;;4.53;;
60006;SDS011;45863;50.336;3.536;2023-06-19T13:00:48;8.80;;;5.00;;
60006;SDS011;45863;50.336;3.536;2023-06-19T13:03:13;8.37;;;4.73;;
60006;SDS011;45863;50.336;3.536;2023-06-19T13:05:38;11.33;;;4.60;;
60006;SDS011;45863;50.336;3.536;2023-06-19T13:08:04;9.33;;;4.43;;
60006;SDS011;45863;50.336;3.536;2023-06-19T13:10:29;6.97;;;3.60;;
60006;SDS011;45863;50.336;3.536;2023-06-19T13:12:54;8.13;;;4.05;;
60006;SDS011;45863;50.336;3.536;2023-06-19T13:15:19;8.90;;;4.00;;
60006;SDS011;45863;50.336;3.536;2023-06-19T13:17:45;6.00;;;3.87;;
60006;SDS011;45863;50.336;3.536;2023-06-19T13:20:10;7.00;;;4.00;;
60006;SDS011;45863;50.336;3.536;2023-06-19T13:22:35;7.68;;;4.18;;
60006;SDS011;45863;50.336;3.536;2023-06-19T13:25:01;6.77;;;4.30;;
60006;SDS011;45863;50.336;3.536;2023-06-19T13:27:27;5.35;;;3.88;;
60006;SDS011;45863;50.336;3.536;2023-06-19T13:29:53;6.32;;;4.05;;
60006;SDS011;45863;50.336;3.536;2023-06-19T13:32:18;7.40;;;3.97;;
60006;SDS011;45863;50.336;3.536;2023-06-19T13:34:44;5.97;;;4.20;;
60006;SDS011;45863;50.336;3.536;2023-06-19T13:37:09;7.33;;;3.90;;
60006;SDS011;45863;50.336;3.536;2023-06-19T13:39:34;5.80;;;4.00;;
60006;SDS011;45863;50.336;3.536;2023-06-19T13:41:59;6.90;;;3.88;;
60006;SDS011;45863;50.336;3.536;2023-06-19T13:44:27;5.45;;;3.78;;
60006;SDS011;45863;50.336;3.536;2023-06-19T13:46:53;8.80;;;4.07;;
60006;SDS011;45863;50.336;3.536;2023-06-19T13:49:19;5.68;;;3.58;;
60006;SDS011;45863;50.336;3.536;2023-06-19T13:51:44;7.13;;;3.88;;
60006;SDS011;45863;50.336;3.536;2023-06-19T13:54:09;5.88;;;3.80;;
60006;SDS011;45863;50.336;3.536;2023-06-19T13:56:34;6.60;;;3.67;;
60006;SDS011;45863;50.336;3.536;2023-06-19T13:59:00;7.43;;;4.47;;
60006;SDS011;45863;50.336;3.536;2023-06-19T14:01:25;7.28;;;4.28;;
60006;SDS011;45863;50.336;3.536;2023-06-19T14:03:50;13.07;;;4.75;;
60006;SDS011;45863;50.336;3.536;2023-06-19T14:06:16;7.68;;;3.67;;
60006;SDS011;45863;50.336;3.536;2023-06-19T14:08:41;8.57;;;4.28;;
60006;SDS011;45863;50.336;3.536;2023-06-19T14:11:06;7.33;;;4.33;;
60006;SDS011;45863;50.336;3.536;2023-06-19T14:13:32;8.57;;;4.40;;
60006;SDS011;45863;50.336;3.536;2023-06-19T14:15:57;6.53;;;3.92;;
60006;SDS011;45863;50.336;3.536;2023-06-19T14:18:23;7.97;;;4.80;;
60006;SDS011;45863;50.336;3.536;2023-06-19T14:20:48;8.25;;;4.40;;
60006;SDS011;45863;50.336;3.536;2023-06-19T14:23:13;7.65;;;4.15;;
60006;SDS011;45863;50.336;3.536;2023-06-19T14:25:38;8.00;;;4.50;;